Aviation Digital Data Service (ADDS)

Output produced by METARs form (1911 UTC 19 April 2019)
found at http://www.aviationweather.gov/metar/data/
 
Forecast for: FIMP (PLAISANCE , MU)
Text: TAF FIMP 191720Z 1918/2100 10006KT 9999 SCT016
Forecast period: 1800 UTC 19 April 2019 to 0000 UTC 21 April 2019
Forecast type: FROM: standard forecast or significant change
Winds: from the E (100 degrees) at 7 MPH (6 knots; 3.1 m/s)
Visibility: 6 or more miles 10+ km)
Ceiling: at least 12,000 feet AGL
Clouds: scattered clouds at 1600 feet AGL
Weather: no significant weather forecast for this period
Text: PROB30
Forecast period: 0000 to 0400 UTC 20 April 2019
Forecast type: TEMPORARY: The following changes expected for less than half the time period
Visibility: 4 miles (7 km)
Ceiling: 1500 feet AGL
Clouds: few clouds at 1000 feet AGL
broken clouds at 1500 feet AGL
Weather: -SHRA  (light rain showers)